Time;durP1;ratioP1;P1;durP2;ratioP2;P2;SDS_P1;SDS_P2;PMS_P1;PMS_P2;Temp;Humidity;BMP_temperature;BMP_pressure;BME280_temperature;BME280_humidity;BME280_pressure;Samples;Min_cycle;Max_cycle;Signal;HPM_P1;HPM_P2
2021/01/07 00:00:55;;;;;;;27.88;14.43;;;1.40;99.90;;;;;;5009062;28;20428;-72
2021/01/07 00:03:21;;;;;;;25.13;15.23;;;1.40;99.90;;;;;;4999069;28;20070;-72
2021/01/07 00:05:48;;;;;;;22.73;13.35;;;1.50;99.90;;;;;;5005163;28;20101;-72
2021/01/07 00:08:15;;;;;;;22.92;12.75;;;1.50;99.90;;;;;;4990262;28;20096;-72
2021/01/07 00:10:43;;;;;;;27.08;14.68;;;1.40;99.90;;;;;;5008128;28;20042;-72
2021/01/07 00:13:10;;;;;;;24.83;14.32;;;1.30;99.90;;;;;;5007284;28;20077;-72
2021/01/07 00:15:36;;;;;;;23.58;12.48;;;1.30;99.90;;;;;;4991707;28;20077;-72
2021/01/07 00:18:03;;;;;;;27.17;14.85;;;1.40;99.90;;;;;;5008924;28;20046;-72
2021/01/07 00:20:31;;;;;;;31.48;15.82;;;1.30;99.90;;;;;;4995826;28;20046;-71
2021/01/07 00:22:58;;;;;;;33.88;17.63;;;1.30;99.90;;;;;;4990267;28;20058;-72
2021/01/07 00:25:24;;;;;;;29.25;16.17;;;1.40;99.90;;;;;;5020393;28;20077;-72
2021/01/07 00:27:50;;;;;;;34.60;18.88;;;1.30;99.90;;;;;;5006800;28;20120;-72
2021/01/07 00:30:18;;;;;;;29.25;17.90;;;1.40;99.90;;;;;;5008663;28;20096;-71
2021/01/07 00:32:45;;;;;;;28.73;17.75;;;1.30;99.90;;;;;;5009089;28;20049;-75
2021/01/07 00:35:11;;;;;;;31.45;17.52;;;1.30;99.90;;;;;;5009140;28;20073;-72
2021/01/07 00:37:38;;;;;;;30.35;17.30;;;1.30;99.90;;;;;;5009127;28;20364;-72
2021/01/07 00:40:05;;;;;;;39.00;19.20;;;1.20;99.90;;;;;;5009003;28;20054;-73
2021/01/07 00:42:32;;;;;;;28.77;15.88;;;1.20;99.90;;;;;;5008575;28;20088;-73
2021/01/07 00:45:02;;;;;;;32.72;19.05;;;1.20;99.90;;;;;;5008896;28;20496;-73
2021/01/07 00:47:28;;;;;;;38.40;20.40;;;1.20;99.90;;;;;;5008884;28;20129;-73
2021/01/07 00:49:55;;;;;;;35.85;19.02;;;1.30;99.90;;;;;;4990522;28;20386;-72
2021/01/07 00:52:21;;;;;;;31.45;18.13;;;1.30;99.90;;;;;;4991175;28;20046;-72
2021/01/07 00:54:47;;;;;;;35.17;18.45;;;1.40;99.90;;;;;;5007963;28;20049;-72
2021/01/07 00:57:14;;;;;;;32.45;18.38;;;1.40;99.90;;;;;;4988366;28;20046;-73
2021/01/07 00:59:40;;;;;;;34.45;17.42;;;1.40;99.90;;;;;;4972075;28;20129;-74
2021/01/07 01:02:06;;;;;;;33.83;18.90;;;1.40;99.90;;;;;;4989420;28;20066;-73
2021/01/07 01:04:33;;;;;;;30.00;17.65;;;1.30;99.90;;;;;;4989494;28;20108;-73
2021/01/07 01:06:59;;;;;;;31.95;18.00;;;1.30;99.90;;;;;;4997800;28;20133;-73
2021/01/07 01:09:25;;;;;;;36.10;18.88;;;1.30;99.90;;;;;;5008182;28;20096;-73
2021/01/07 01:11:52;;;;;;;37.60;20.75;;;1.30;99.90;;;;;;5009302;28;20463;-73
2021/01/07 01:14:20;;;;;;;33.25;18.98;;;1.20;99.90;;;;;;5007355;28;20125;-73
2021/01/07 01:16:50;;;;;;;32.35;18.52;;;1.20;99.90;;;;;;5008653;28;20077;-74
2021/01/07 01:19:17;;;;;;;41.58;23.17;;;1.20;99.90;;;;;;5008725;28;20064;-73
2021/01/07 01:21:44;;;;;;;37.85;20.45;;;1.30;99.90;;;;;;5008032;28;20173;-73
2021/01/07 01:24:11;;;;;;;38.83;21.27;;;1.20;99.90;;;;;;4992799;28;21775;-74
2021/01/07 01:26:37;;;;;;;39.65;21.92;;;1.20;99.90;;;;;;5013856;28;20046;-74
2021/01/07 01:29:04;;;;;;;31.85;19.05;;;1.20;99.90;;;;;;5009871;28;20115;-73
2021/01/07 01:31:30;;;;;;;36.47;20.83;;;1.30;99.90;;;;;;5011335;28;20120;-73
2021/01/07 01:33:57;;;;;;;28.70;17.50;;;1.30;99.90;;;;;;5010719;28;20447;-73
2021/01/07 01:36:26;;;;;;;31.17;17.92;;;1.30;99.90;;;;;;5011716;28;20046;-73
2021/01/07 01:38:54;;;;;;;36.70;20.83;;;1.30;99.90;;;;;;4982114;28;20144;-73
2021/01/07 01:41:20;;;;;;;38.45;21.30;;;1.30;99.90;;;;;;5008744;28;20112;-73
2021/01/07 01:43:46;;;;;;;32.58;18.75;;;1.30;99.90;;;;;;5010515;28;20073;-73
2021/01/07 01:46:13;;;;;;;33.08;17.23;;;1.20;99.90;;;;;;5011469;28;20459;-73
2021/01/07 01:48:41;;;;;;;33.47;19.20;;;1.20;99.90;;;;;;5009970;28;20081;-74
2021/01/07 01:51:08;;;;;;;32.17;19.02;;;1.30;99.90;;;;;;5011194;28;20171;-73
2021/01/07 01:53:36;;;;;;;35.72;19.00;;;1.30;99.90;;;;;;5010462;28;20065;-74
2021/01/07 01:56:05;;;;;;;30.90;17.73;;;1.40;99.90;;;;;;5009109;28;20125;-74
2021/01/07 01:58:35;;;;;;;32.25;18.33;;;1.40;99.90;;;;;;5010745;28;20104;-73
2021/01/07 02:01:01;;;;;;;34.03;18.85;;;1.40;99.90;;;;;;5007769;28;20132;-73
2021/01/07 02:03:28;;;;;;;34.38;18.08;;;1.40;99.90;;;;;;5008519;28;20135;-73
2021/01/07 02:05:56;;;;;;;36.85;19.83;;;1.30;99.90;;;;;;5010351;28;20042;-73
2021/01/07 02:08:24;;;;;;;36.90;20.80;;;1.30;99.90;;;;;;5008700;28;20504;-73
2021/01/07 02:10:51;;;;;;;31.45;18.35;;;1.40;99.90;;;;;;5009429;28;20053;-73
2021/01/07 02:13:18;;;;;;;32.33;18.95;;;1.40;99.90;;;;;;5007577;28;20043;-73
2021/01/07 02:15:45;;;;;;;33.20;18.95;;;1.40;99.90;;;;;;5007082;28;20053;-73
2021/01/07 02:18:12;;;;;;;33.40;19.27;;;1.40;99.90;;;;;;4991609;28;20227;-73
2021/01/07 02:20:39;;;;;;;34.42;18.85;;;1.40;99.90;;;;;;5009877;28;20082;-73
2021/01/07 02:23:05;;;;;;;34.78;19.77;;;1.30;99.90;;;;;;5009724;28;20143;-73
2021/01/07 02:25:32;;;;;;;27.83;16.67;;;1.20;99.90;;;;;;5008975;28;20046;-73
2021/01/07 02:27:58;;;;;;;37.15;20.83;;;1.30;99.90;;;;;;5007901;28;20465;-74
2021/01/07 02:30:25;;;;;;;37.08;21.35;;;1.30;99.90;;;;;;5010319;28;20574;-73
2021/01/07 02:32:51;;;;;;;38.63;20.60;;;1.30;99.90;;;;;;5008586;28;20085;-73
2021/01/07 02:35:18;;;;;;;36.33;19.88;;;1.30;99.90;;;;;;5007461;28;20462;-73
2021/01/07 02:37:46;;;;;;;41.10;21.42;;;1.30;99.90;;;;;;5007939;28;20191;-74
2021/01/07 02:40:14;;;;;;;34.40;17.02;;;1.30;99.90;;;;;;5024543;28;20078;-74
2021/01/07 02:42:41;;;;;;;36.25;19.98;;;1.20;99.90;;;;;;5009345;28;20157;-74
2021/01/07 02:45:08;;;;;;;35.45;18.67;;;1.20;99.90;;;;;;4991463;28;20456;-73
2021/01/07 02:47:36;;;;;;;39.03;21.83;;;1.20;99.90;;;;;;5006003;28;20078;-73
2021/01/07 02:50:05;;;;;;;37.13;20.40;;;1.20;99.90;;;;;;5009890;28;20077;-73
2021/01/07 02:52:31;;;;;;;40.80;21.67;;;1.20;99.90;;;;;;5009387;28;20119;-73
2021/01/07 02:54:58;;;;;;;38.65;20.88;;;1.30;99.90;;;;;;5010145;28;20109;-73
2021/01/07 02:57:24;;;;;;;37.30;20.98;;;1.30;99.90;;;;;;5003093;28;20060;-73
2021/01/07 02:59:50;;;;;;;33.75;17.77;;;1.30;99.90;;;;;;5010232;28;20042;-74
2021/01/07 03:02:17;;;;;;;41.22;22.30;;;1.20;99.90;;;;;;5007524;28;20054;-73
2021/01/07 03:04:43;;;;;;;39.00;21.17;;;1.20;99.90;;;;;;5010395;28;20046;-74
2021/01/07 03:07:10;;;;;;;43.08;21.25;;;1.20;99.90;;;;;;5009452;28;20081;-74
2021/01/07 03:09:36;;;;;;;43.53;22.05;;;1.20;99.90;;;;;;5009516;28;20065;-74
2021/01/07 03:12:18;;;;;;;41.30;21.33;;;1.20;99.90;;;;;;5008607;28;20041;-74
2021/01/07 03:14:45;;;;;;;43.85;22.88;;;1.30;99.90;;;;;;5008844;28;20054;-74
2021/01/07 03:17:13;;;;;;;41.20;20.60;;;1.30;99.90;;;;;;5008774;28;20559;-73
2021/01/07 03:19:40;;;;;;;46.55;23.77;;;1.20;99.90;;;;;;4992303;28;20145;-74
2021/01/07 03:22:07;;;;;;;48.08;24.00;;;1.10;99.90;;;;;;5009603;28;20089;-73
2021/01/07 03:24:33;;;;;;;37.97;21.20;;;1.20;99.90;;;;;;5009474;28;20530;-74
2021/01/07 03:27:00;;;;;;;35.53;18.70;;;1.20;99.90;;;;;;5008466;28;20054;-73
2021/01/07 03:29:27;;;;;;;40.90;23.23;;;1.20;99.90;;;;;;5008099;28;20049;-75
2021/01/07 03:31:54;;;;;;;45.97;23.15;;;1.10;99.90;;;;;;5007871;28;20416;-73
2021/01/07 03:34:20;;;;;;;39.70;21.02;;;1.10;99.90;;;;;;5010038;28;20073;-74
2021/01/07 03:36:48;;;;;;;44.10;23.13;;;1.20;99.90;;;;;;5008892;28;20045;-73
2021/01/07 03:39:14;;;;;;;44.05;22.27;;;1.20;99.90;;;;;;5003186;28;20499;-73
2021/01/07 03:41:42;;;;;;;42.67;21.42;;;1.20;99.90;;;;;;5008820;28;20159;-73
2021/01/07 03:44:09;;;;;;;40.53;20.75;;;1.10;99.90;;;;;;5007223;28;20096;-73
2021/01/07 03:46:35;;;;;;;41.30;21.83;;;1.20;99.90;;;;;;5006630;28;20050;-73
2021/01/07 03:49:03;;;;;;;35.53;20.15;;;1.20;99.90;;;;;;5009359;28;20104;-73
2021/01/07 03:51:29;;;;;;;36.90;19.98;;;1.10;99.90;;;;;;5008843;28;20133;-73
2021/01/07 03:53:55;;;;;;;40.05;20.52;;;1.10;99.90;;;;;;5009526;28;20092;-73
2021/01/07 03:56:22;;;;;;;45.45;22.63;;;1.10;99.90;;;;;;5007247;28;20070;-73
2021/01/07 03:58:48;;;;;;;35.10;19.67;;;1.10;99.90;;;;;;4991423;28;20521;-73
2021/01/07 04:01:16;;;;;;;36.60;19.85;;;1.10;99.90;;;;;;5008471;28;20041;-73
2021/01/07 04:03:43;;;;;;;36.08;19.40;;;1.10;99.90;;;;;;5005708;28;20137;-73
2021/01/07 04:06:09;;;;;;;43.50;22.85;;;1.10;99.90;;;;;;5008176;28;20077;-73
2021/01/07 04:08:36;;;;;;;42.33;22.30;;;1.10;99.90;;;;;;5007980;28;20088;-74
2021/01/07 04:11:03;;;;;;;38.13;19.75;;;1.20;99.90;;;;;;5008048;28;20046;-73
2021/01/07 04:13:30;;;;;;;33.95;18.33;;;1.20;99.90;;;;;;5008487;28;20543;-73
2021/01/07 04:15:57;;;;;;;37.00;20.45;;;1.20;99.90;;;;;;5008215;28;20152;-74
2021/01/07 04:18:24;;;;;;;38.03;19.52;;;1.10;99.90;;;;;;5008456;28;20046;-73
2021/01/07 04:20:50;;;;;;;38.88;19.75;;;1.10;99.90;;;;;;5007245;28;20112;-73
2021/01/07 04:23:16;;;;;;;40.67;21.67;;;1.10;99.90;;;;;;5007951;28;20452;-73
2021/01/07 04:25:43;;;;;;;37.88;21.13;;;1.00;99.90;;;;;;4990455;28;20104;-74
2021/01/07 04:28:09;;;;;;;42.85;22.17;;;1.00;99.90;;;;;;5016693;28;20567;-74
2021/01/07 04:30:36;;;;;;;40.03;22.15;;;1.10;99.90;;;;;;5005397;28;20080;-74
2021/01/07 04:33:02;;;;;;;36.63;19.35;;;1.10;99.90;;;;;;5007736;28;20144;-74
2021/01/07 04:35:29;;;;;;;38.42;19.45;;;1.10;99.90;;;;;;5006763;28;20119;-73
2021/01/07 04:37:55;;;;;;;43.30;19.45;;;1.10;99.90;;;;;;5007906;28;20045;-74
2021/01/07 04:40:22;;;;;;;41.28;21.38;;;1.00;99.90;;;;;;5007446;28;20045;-74
2021/01/07 04:42:48;;;;;;;40.13;19.40;;;1.00;99.90;;;;;;5008044;28;20050;-73
2021/01/07 04:45:14;;;;;;;34.83;18.45;;;1.10;99.90;;;;;;5007847;28;20129;-73
2021/01/07 04:47:48;;;;;;;33.67;17.60;;;1.10;99.90;;;;;;5007281;28;20103;-73
2021/01/07 04:50:16;;;;;;;31.92;17.05;;;1.20;99.90;;;;;;5007852;28;20070;-74
2021/01/07 04:52:43;;;;;;;30.38;15.65;;;1.20;99.90;;;;;;5007408;28;20052;-74
2021/01/07 04:55:10;;;;;;;32.20;16.13;;;1.10;99.90;;;;;;5007612;28;20538;-74
2021/01/07 04:57:37;;;;;;;28.73;16.13;;;1.10;99.90;;;;;;5007315;28;20061;-74
2021/01/07 05:00:09;;;;;;;26.60;14.98;;;1.10;99.90;;;;;;5011659;28;20115;-73
2021/01/07 05:02:36;;;;;;;31.45;16.70;;;1.10;99.90;;;;;;5008026;28;20074;-73
2021/01/07 05:05:07;;;;;;;33.55;16.50;;;1.10;99.90;;;;;;4994699;28;20124;-73
2021/01/07 05:07:40;;;;;;;33.38;17.52;;;1.20;99.90;;;;;;5006701;28;20057;-74
2021/01/07 05:10:09;;;;;;;33.33;17.55;;;1.10;99.90;;;;;;5009813;28;20143;-73
2021/01/07 05:12:36;;;;;;;34.13;17.55;;;1.10;99.90;;;;;;5010250;28;20122;-73
2021/01/07 05:15:04;;;;;;;34.63;17.92;;;1.10;99.90;;;;;;5011034;28;20115;-74
2021/01/07 05:17:31;;;;;;;36.20;16.90;;;1.10;99.90;;;;;;5010856;28;20511;-73
2021/01/07 05:19:57;;;;;;;28.88;15.38;;;1.10;99.90;;;;;;5011098;28;20085;-74
2021/01/07 05:22:43;;;;;;;28.85;14.60;;;1.10;99.90;;;;;;5005625;28;20069;-74
2021/01/07 05:25:14;;;;;;;33.88;16.52;;;1.10;99.90;;;;;;5003922;28;20051;-74
2021/01/07 05:27:42;;;;;;;28.70;14.27;;;1.10;99.90;;;;;;5010889;28;20104;-74
2021/01/07 05:30:11;;;;;;;27.27;14.90;;;1.00;99.90;;;;;;5011230;28;20141;-73
2021/01/07 05:32:40;;;;;;;32.85;16.52;;;1.00;99.90;;;;;;5010478;28;20188;-73
2021/01/07 05:35:09;;;;;;;33.28;17.90;;;0.90;99.90;;;;;;4984241;28;20144;-73
2021/01/07 05:37:37;;;;;;;33.97;17.98;;;1.00;99.90;;;;;;4992253;28;20158;-74
2021/01/07 05:40:05;;;;;;;33.33;17.48;;;1.00;99.90;;;;;;5005210;28;20119;-74
2021/01/07 05:42:39;;;;;;;40.22;19.75;;;1.00;99.90;;;;;;5010703;28;20187;-73
2021/01/07 05:45:07;;;;;;;33.70;17.98;;;1.00;99.90;;;;;;4992441;28;20107;-73
2021/01/07 05:47:38;;;;;;;36.10;18.48;;;1.00;99.90;;;;;;5009433;28;20123;-74
2021/01/07 05:50:06;;;;;;;35.88;17.88;;;1.10;99.90;;;;;;5011463;28;20563;-73
2021/01/07 05:52:33;;;;;;;39.53;19.38;;;1.00;99.90;;;;;;5009869;28;20129;-73
2021/01/07 05:55:00;;;;;;;34.92;17.27;;;1.00;99.90;;;;;;5010351;28;20073;-73
2021/01/07 05:57:29;;;;;;;33.75;16.95;;;1.00;99.90;;;;;;5009980;28;20124;-73
2021/01/07 05:59:57;;;;;;;37.78;18.95;;;0.90;99.90;;;;;;5010473;28;20056;-74
2021/01/07 06:02:24;;;;;;;44.80;21.58;;;0.90;99.90;;;;;;5010160;28;20049;-73
2021/01/07 06:04:52;;;;;;;41.20;21.30;;;0.80;99.90;;;;;;5009426;28;20136;-73
2021/01/07 06:07:19;;;;;;;38.53;18.83;;;0.90;99.90;;;;;;5009314;28;20160;-73
2021/01/07 06:09:48;;;;;;;41.83;20.13;;;0.90;99.90;;;;;;4991794;28;20480;-74
2021/01/07 06:12:15;;;;;;;41.72;19.73;;;0.90;99.90;;;;;;4990542;28;20491;-73
2021/01/07 06:14:43;;;;;;;39.88;19.17;;;0.90;99.90;;;;;;5010538;28;20197;-73
2021/01/07 06:17:12;;;;;;;37.65;18.92;;;0.80;99.90;;;;;;5003900;28;20104;-74
2021/01/07 06:19:40;;;;;;;35.67;18.77;;;0.80;99.90;;;;;;5001246;28;20395;-74
2021/01/07 06:22:15;;;;;;;38.42;19.08;;;0.80;99.90;;;;;;4992905;28;20137;-74
2021/01/07 06:24:43;;;;;;;38.00;18.58;;;0.90;99.90;;;;;;5018936;28;20129;-73
2021/01/07 06:27:33;;;;;;;40.30;20.23;;;0.90;99.90;;;;;;5012416;28;20319;-74
2021/01/07 06:30:11;;;;;;;39.60;19.48;;;1.00;99.90;;;;;;5011361;28;20131;-74
2021/01/07 06:32:41;;;;;;;46.85;21.88;;;1.00;99.90;;;;;;5008386;28;20096;-73
2021/01/07 06:35:16;;;;;;;42.30;20.48;;;1.00;99.90;;;;;;5008607;28;20503;-74
2021/01/07 06:37:47;;;;;;;37.88;19.70;;;0.90;99.90;;;;;;5009743;28;20077;-73
2021/01/07 06:40:16;;;;;;;43.70;20.77;;;0.80;99.90;;;;;;5009949;28;20069;-74
2021/01/07 06:42:44;;;;;;;36.90;17.80;;;0.80;99.90;;;;;;5007782;28;20073;-74
2021/01/07 06:45:12;;;;;;;38.50;19.00;;;0.80;99.90;;;;;;5010336;28;20452;-74
2021/01/07 06:47:39;;;;;;;37.13;17.90;;;0.80;99.90;;;;;;5007790;28;20133;-73
2021/01/07 06:50:09;;;;;;;34.65;18.30;;;0.90;99.90;;;;;;5009720;28;20050;-74
2021/01/07 06:52:43;;;;;;;36.95;19.77;;;1.00;99.90;;;;;;5009705;28;20049;-74
2021/01/07 06:55:12;;;;;;;35.05;17.02;;;1.00;99.90;;;;;;5004273;28;20104;-74
2021/01/07 06:57:49;;;;;;;42.60;20.70;;;0.90;99.90;;;;;;5008940;28;20077;-74
2021/01/07 07:00:20;;;;;;;41.28;20.65;;;0.90;99.90;;;;;;5007502;28;20144;-73
2021/01/07 07:03:03;;;;;;;50.97;24.05;;;0.80;99.90;;;;;;4992612;28;20137;-74
2021/01/07 07:05:37;;;;;;;;;;;0.80;99.90;;;;;;5008926;28;20361;-73
2021/01/07 07:08:14;;;;;;;42.63;20.38;;;0.90;99.90;;;;;;5009559;28;20011;-74
2021/01/07 07:10:41;;;;;;;44.78;20.85;;;0.80;99.90;;;;;;5008700;28;20073;-74
2021/01/07 07:13:18;;;;;;;45.40;22.45;;;0.70;99.90;;;;;;5007651;28;20077;-74
2021/01/07 07:15:47;;;;;;;44.25;21.92;;;0.70;99.90;;;;;;5004947;28;20463;-73
2021/01/07 07:18:27;;;;;;;51.13;22.52;;;0.70;99.90;;;;;;5009107;28;20110;-73
2021/01/07 07:20:54;;;;;;;42.97;21.40;;;0.70;99.90;;;;;;5001648;28;20108;-73
2021/01/07 07:23:41;;;;;;;44.80;20.35;;;0.80;99.90;;;;;;5008087;28;20054;-73
2021/01/07 07:26:11;;;;;;;47.15;21.55;;;0.70;99.90;;;;;;5009355;28;20042;-74
2021/01/07 07:28:43;;;;;;;43.17;21.65;;;0.70;99.90;;;;;;5007369;28;20103;-73
2021/01/07 07:31:11;;;;;;;;;;;0.60;99.90;;;;;;5007759;28;20053;-73
2021/01/07 07:33:42;;;;;;;42.45;20.13;;;0.60;99.90;;;;;;5008410;28;20363;-74
2021/01/07 07:36:09;;;;;;;42.88;21.30;;;0.60;99.90;;;;;;5008762;28;20469;-74
2021/01/07 07:38:41;;;;;;;43.35;20.30;;;0.70;99.90;;;;;;5007579;28;20073;-74
2021/01/07 07:41:10;;;;;;;43.80;20.85;;;0.60;99.90;;;;;;5008466;28;20128;-74
2021/01/07 07:43:38;;;;;;;48.47;21.42;;;0.60;99.90;;;;;;5006004;28;20056;-73
2021/01/07 07:46:06;;;;;;;52.17;22.85;;;0.50;99.90;;;;;;5009585;28;20180;-74
2021/01/07 07:48:38;;;;;;;46.30;19.83;;;0.50;99.90;;;;;;5007690;28;20569;-74
2021/01/07 07:51:05;;;;;;;47.17;21.98;;;0.50;99.90;;;;;;5007698;28;20077;-73
2021/01/07 07:53:32;;;;;;;44.53;20.65;;;0.50;99.90;;;;;;5008299;28;20094;-74
2021/01/07 07:55:58;;;;;;;48.35;23.02;;;0.50;99.90;;;;;;5009433;28;20077;-73
2021/01/07 07:58:26;;;;;;;47.40;22.10;;;0.60;99.90;;;;;;5008052;28;20073;-73
2021/01/07 08:00:57;;;;;;;47.15;22.08;;;0.60;99.90;;;;;;5007715;28;20068;-73
2021/01/07 08:03:29;;;;;;;48.22;22.60;;;0.50;99.90;;;;;;5005253;28;20153;-74
2021/01/07 08:05:58;;;;;;;53.28;24.63;;;0.60;99.90;;;;;;5009731;28;20046;-73
2021/01/07 08:08:25;;;;;;;47.63;22.77;;;0.50;99.90;;;;;;5007486;28;20125;-73
2021/01/07 08:10:53;;;;;;;50.35;23.67;;;0.50;99.90;;;;;;5006121;28;20086;-73
2021/01/07 08:13:21;;;;;;;53.42;27.02;;;0.60;99.90;;;;;;5007829;28;20684;-73
2021/01/07 08:15:49;;;;;;;54.67;25.95;;;0.60;99.90;;;;;;5009211;28;20488;-74
2021/01/07 08:18:21;;;;;;;48.33;22.63;;;0.70;99.90;;;;;;4989456;28;20046;-73
2021/01/07 08:20:51;;;;;;;47.23;22.07;;;0.60;99.90;;;;;;5008885;28;20049;-73
2021/01/07 08:23:18;;;;;;;59.55;26.73;;;0.60;99.90;;;;;;5007243;28;20061;-74
2021/01/07 08:25:50;;;;;;;58.08;25.40;;;0.60;99.90;;;;;;5008158;28;20124;-73
2021/01/07 08:28:22;;;;;;;56.28;25.83;;;0.70;99.90;;;;;;5006344;28;20076;-74
2021/01/07 08:30:55;;;;;;;50.42;23.55;;;0.70;99.90;;;;;;5007836;28;20077;-74
2021/01/07 08:33:23;;;;;;;50.45;22.58;;;0.70;99.90;;;;;;5007447;28;20125;-74
2021/01/07 08:35:51;;;;;;;43.72;21.40;;;0.70;99.90;;;;;;5007184;28;20113;-73
2021/01/07 08:38:31;;;;;;;47.22;22.02;;;0.60;99.90;;;;;;5007590;28;20042;-74
2021/01/07 08:41:22;;;;;;;40.72;20.67;;;0.60;99.90;;;;;;5007018;28;20140;-73
2021/01/07 08:43:54;;;;;;;51.47;24.67;;;0.60;99.90;;;;;;5007313;28;20081;-73
2021/01/07 08:46:26;;;;;;;52.20;24.07;;;0.70;99.90;;;;;;5008602;28;20519;-74
2021/01/07 08:49:03;;;;;;;47.45;20.60;;;0.60;99.90;;;;;;5006477;28;20058;-73
2021/01/07 08:51:41;;;;;;;49.03;20.75;;;0.60;99.90;;;;;;5007092;28;20133;-74
2021/01/07 08:54:10;;;;;;;51.53;23.08;;;0.70;99.90;;;;;;4990543;28;20041;-74
2021/01/07 08:56:41;;;;;;;46.60;21.48;;;0.70;99.90;;;;;;5007039;28;20095;-73
2021/01/07 08:59:33;;;;;;;49.65;23.05;;;0.60;99.90;;;;;;5003150;28;20499;-74
2021/01/07 09:02:21;;;;;;;43.70;22.23;;;0.60;99.90;;;;;;5007162;28;20131;-74
2021/01/07 09:04:51;;;;;;;46.72;21.60;;;0.60;99.90;;;;;;5007227;28;20096;-74
2021/01/07 09:07:20;;;;;;;50.45;21.85;;;0.60;99.90;;;;;;5007858;28;20545;-74
2021/01/07 09:09:50;;;;;;;47.53;21.80;;;0.70;99.90;;;;;;5004474;28;20081;-74
2021/01/07 09:12:36;;;;;;;50.97;22.42;;;0.70;99.90;;;;;;5007003;28;20050;-73
2021/01/07 09:15:10;;;;;;;49.00;20.98;;;0.60;99.90;;;;;;5008376;28;20391;-74
2021/01/07 09:17:55;;;;;;;51.08;24.30;;;0.60;99.90;;;;;;4999243;28;20132;-74
2021/01/07 09:20:28;;;;;;;43.42;20.88;;;0.60;99.90;;;;;;4990146;28;20538;-74
2021/01/07 09:23:05;;;;;;;48.80;22.17;;;0.70;99.90;;;;;;5007016;28;20085;-74
2021/01/07 09:25:33;;;;;;;47.92;22.15;;;0.70;99.90;;;;;;5008388;28;20050;-74
2021/01/07 09:28:00;;;;;;;47.10;21.75;;;0.60;99.90;;;;;;5008665;28;20081;-73
2021/01/07 09:30:27;;;;;;;53.58;24.73;;;0.70;99.90;;;;;;5006307;28;20480;-74
2021/01/07 09:32:54;;;;;;;46.58;19.73;;;0.60;99.90;;;;;;5006040;28;20042;-74
2021/01/07 09:35:21;;;;;;;45.53;20.08;;;0.60;99.90;;;;;;5007198;28;20073;-74
2021/01/07 09:38:00;;;;;;;51.53;22.85;;;0.70;99.90;;;;;;5005921;28;20100;-74
2021/01/07 09:40:27;;;;;;;45.70;21.90;;;0.70;99.90;;;;;;5005290;28;20120;-74
2021/01/07 09:42:54;;;;;;;44.25;20.52;;;0.70;99.90;;;;;;5006796;28;20124;-74
2021/01/07 09:45:20;;;;;;;45.42;21.52;;;0.70;99.90;;;;;;5009129;28;20073;-74
2021/01/07 09:47:46;;;;;;;44.50;20.70;;;0.70;99.90;;;;;;5009613;28;20322;-74
2021/01/07 09:50:14;;;;;;;45.25;22.38;;;0.80;99.90;;;;;;4991836;28;20403;-74
2021/01/07 09:52:40;;;;;;;51.83;23.00;;;0.80;99.90;;;;;;5007660;28;20537;-74
2021/01/07 09:55:08;;;;;;;41.10;17.95;;;0.80;99.90;;;;;;5009911;28;20422;-74
2021/01/07 09:57:36;;;;;;;53.25;24.42;;;0.90;99.90;;;;;;5007621;28;20050;-74
2021/01/07 10:00:05;;;;;;;46.75;23.45;;;0.90;99.90;;;;;;5006639;28;20061;-73
2021/01/07 10:02:32;;;;;;;44.92;21.20;;;0.90;99.90;;;;;;5009247;28;20050;-74
2021/01/07 10:04:59;;;;;;;39.78;17.83;;;0.90;99.90;;;;;;5008848;28;20505;-74
2021/01/07 10:07:25;;;;;;;49.67;21.77;;;0.90;99.90;;;;;;4991208;28;20057;-73
2021/01/07 10:09:52;;;;;;;50.63;23.20;;;0.90;99.90;;;;;;5007306;28;20103;-74
2021/01/07 10:12:18;;;;;;;45.45;20.27;;;0.90;99.90;;;;;;4990140;28;20085;-74
2021/01/07 10:14:44;;;;;;;45.10;21.38;;;0.90;99.90;;;;;;5009849;28;20110;-74
2021/01/07 10:17:11;;;;;;;39.38;18.75;;;0.90;99.90;;;;;;5010086;28;20046;-74
2021/01/07 10:19:39;;;;;;;46.22;22.20;;;1.00;99.90;;;;;;5010416;28;20046;-74
2021/01/07 10:22:10;;;;;;;41.40;19.77;;;1.10;99.90;;;;;;5009372;28;20045;-74
2021/01/07 10:24:47;;;;;;;41.53;18.77;;;1.20;99.90;;;;;;5004104;28;20426;-74
2021/01/07 10:27:17;;;;;;;44.97;20.83;;;1.10;99.90;;;;;;4997422;28;20137;-73
2021/01/07 10:29:44;;;;;;;42.08;20.45;;;1.20;99.90;;;;;;5010239;28;20145;-74
2021/01/07 10:32:12;;;;;;;42.05;19.05;;;1.30;99.90;;;;;;5007007;28;20049;-73
2021/01/07 10:34:40;;;;;;;39.45;17.42;;;1.30;99.90;;;;;;5008940;28;20057;-73
2021/01/07 10:37:09;;;;;;;39.25;20.48;;;1.20;99.90;;;;;;4999732;28;20080;-74
2021/01/07 10:39:38;;;;;;;39.92;19.48;;;1.20;99.90;;;;;;5009928;28;20184;-74
2021/01/07 10:42:09;;;;;;;39.40;20.52;;;1.20;99.90;;;;;;5010267;28;20042;-74
2021/01/07 10:44:38;;;;;;;36.50;17.20;;;1.30;99.90;;;;;;5010734;28;20057;-73
2021/01/07 10:47:06;;;;;;;42.67;19.52;;;1.20;99.90;;;;;;4990759;28;20046;-74
2021/01/07 10:49:35;;;;;;;42.40;21.15;;;1.30;99.90;;;;;;5010930;28;20129;-74
2021/01/07 10:52:07;;;;;;;36.13;18.83;;;1.40;99.90;;;;;;5010291;28;20165;-74
2021/01/07 10:55:21;;;;;;;36.80;19.00;;;1.40;99.90;;;;;;5010157;28;20112;-74
2021/01/07 10:57:47;;;;;;;38.72;18.15;;;1.40;99.90;;;;;;4999225;28;20418;-74
2021/01/07 11:00:40;;;;;;;35.80;16.25;;;1.40;99.90;;;;;;5008169;28;20526;-73
2021/01/07 11:03:21;;;;;;;39.97;19.42;;;1.40;99.90;;;;;;4997797;28;20128;-73
2021/01/07 11:05:54;;;;;;;41.92;20.15;;;1.40;99.90;;;;;;5006725;28;20120;-73
2021/01/07 11:08:46;;;;;;;36.28;18.90;;;1.50;99.90;;;;;;5009085;28;20085;-73
2021/01/07 11:11:39;;;;;;;35.65;17.42;;;1.50;99.90;;;;;;5008692;28;20120;-73
2021/01/07 11:14:38;;;;;;;35.10;17.08;;;1.70;99.90;;;;;;5003402;28;20495;-73
2021/01/07 11:17:16;;;;;;;34.70;17.55;;;1.90;99.90;;;;;;5008038;28;20483;-73
2021/01/07 11:19:48;;;;;;;31.73;15.57;;;1.80;99.90;;;;;;5008650;28;20049;-73
2021/01/07 11:22:26;;;;;;;31.48;15.18;;;1.90;99.90;;;;;;5006652;28;20042;-73
2021/01/07 11:24:54;;;;;;;39.25;17.92;;;2.00;99.90;;;;;;5001387;28;20054;-73
2021/01/07 11:27:24;;;;;;;33.85;17.67;;;2.00;99.90;;;;;;5003039;28;20077;-73
2021/01/07 11:29:54;;;;;;;31.75;15.65;;;2.00;99.90;;;;;;5009305;28;20045;-73
2021/01/07 11:32:21;;;;;;;34.67;16.52;;;2.10;99.90;;;;;;5007860;28;20556;-74
2021/01/07 11:34:48;;;;;;;30.35;15.35;;;2.10;99.90;;;;;;5008423;28;20053;-74
2021/01/07 11:37:42;;;;;;;29.98;14.57;;;2.10;99.90;;;;;;5008184;28;20135;-74
2021/01/07 11:40:37;;;;;;;34.83;16.55;;;2.00;99.90;;;;;;5008073;28;20200;-74
2021/01/07 11:43:44;;;;;;;33.05;16.98;;;2.20;99.90;;;;;;5006969;28;20120;-73
2021/01/07 11:46:17;;;;;;;36.17;17.23;;;2.20;99.90;;;;;;5001836;28;20042;-74
2021/01/07 11:48:46;;;;;;;30.88;14.38;;;2.20;99.90;;;;;;5009325;28;20132;-74
2021/01/07 11:51:13;;;;;;;34.47;15.85;;;2.10;99.90;;;;;;5008517;28;20045;-74
2021/01/07 11:53:41;;;;;;;33.95;17.35;;;2.00;99.90;;;;;;5009318;28;20118;-74
2021/01/07 11:56:08;;;;;;;30.85;15.10;;;2.00;99.90;;;;;;5008963;28;20129;-73
2021/01/07 11:58:36;;;;;;;33.67;16.13;;;2.00;99.90;;;;;;5007126;28;20534;-73
2021/01/07 12:01:02;;;;;;;34.45;17.58;;;2.10;99.90;;;;;;4999910;28;20104;-73
2021/01/07 12:03:31;;;;;;;33.55;16.88;;;2.10;99.90;;;;;;5008831;28;20050;-73
2021/01/07 12:06:06;;;;;;;31.52;14.25;;;2.20;99.90;;;;;;5008048;28;20103;-73
2021/01/07 12:08:56;;;;;;;27.33;14.40;;;2.10;99.90;;;;;;5007919;28;20473;-73
2021/01/07 12:11:32;;;;;;;23.38;11.65;;;2.10;99.90;;;;;;4990142;28;20054;-73
2021/01/07 12:14:11;;;;;;;24.75;13.00;;;2.10;99.90;;;;;;5001688;28;20145;-73
2021/01/07 12:16:51;;;;;;;31.13;13.20;;;2.20;99.90;;;;;;5008250;28;20065;-72
2021/01/07 12:19:33;;;;;;;32.50;15.98;;;2.10;99.90;;;;;;5008955;28;20058;-73
2021/01/07 12:22:02;;;;;;;29.55;14.77;;;2.20;99.90;;;;;;5008501;28;20120;-72
2021/01/07 12:24:33;;;;;;;29.38;14.25;;;2.30;99.90;;;;;;5008545;28;20046;-72
2021/01/07 12:27:01;;;;;;;26.38;13.57;;;2.20;99.90;;;;;;5008656;28;20148;-72
2021/01/07 12:29:27;;;;;;;30.77;14.25;;;2.30;99.90;;;;;;5004401;28;20439;-73
2021/01/07 12:31:56;;;;;;;27.02;12.70;;;2.30;99.90;;;;;;5008316;28;20191;-72
2021/01/07 12:34:59;;;;;;;31.10;16.08;;;2.10;99.90;;;;;;5008931;28;20128;-71
2021/01/07 12:37:30;;;;;;;25.93;11.80;;;2.10;99.90;;;;;;4992659;28;20121;-71
2021/01/07 12:40:06;;;;;;;28.08;14.85;;;2.20;99.90;;;;;;5007094;28;20049;-72
2021/01/07 12:42:40;;;;;;;22.48;11.07;;;2.10;99.90;;;;;;5011636;28;20181;-72
2021/01/07 12:45:13;;;;;;;34.55;15.23;;;2.10;99.90;;;;;;5005377;28;20129;-72
2021/01/07 12:47:40;;;;;;;31.02;14.68;;;2.10;99.90;;;;;;5004435;28;20050;-72
2021/01/07 12:50:08;;;;;;;29.67;14.80;;;2.20;99.90;;;;;;5006308;28;20042;-72
2021/01/07 12:52:36;;;;;;;30.52;15.75;;;2.20;99.90;;;;;;5005934;28;20054;-72